Time;durP1;ratioP1;P1;durP2;ratioP2;P2;SDS_P1;SDS_P2;PMS_P1;PMS_P2;Temp;Humidity;BMP_temperature;BMP_pressure;BME280_temperature;BME280_humidity;BME280_pressure;Samples;Min_cycle;Max_cycle;Signal;HPM_P1;HPM_P2
2023/04/01 00:00:59;;;;;;;3.73;1.80;;;;;;;;;;5047485;28;20362;-75
2023/04/01 00:03:26;;;;;;;4.47;1.40;;;;;;;;;;5042602;28;20181;-75
2023/04/01 00:05:53;;;;;;;4.67;1.70;;;;;;;;;;5045635;28;20178;-75
2023/04/01 00:08:19;;;;;;;3.43;1.00;;;;;;;;;;5045788;28;20247;-75
2023/04/01 00:10:45;;;;;;;4.17;1.50;;;;;;;;;;5047623;28;20854;-75
2023/04/01 00:13:12;;;;;;;5.97;1.50;;;;;;;;;;5046629;28;20177;-75
2023/04/01 00:15:38;;;;;;;3.77;1.40;;;;;;;;;;5047305;28;20188;-75
2023/04/01 00:18:04;;;;;;;3.33;1.53;;;;;;;;;;5044849;28;20180;-75
2023/04/01 00:20:31;;;;;;;2.93;1.30;;;;;;;;;;5045636;28;20206;-75
2023/04/01 00:22:57;;;;;;;3.53;1.30;;;;;;;;;;5045609;28;20192;-75
2023/04/01 00:25:24;;;;;;;4.20;1.37;;;;;;;;;;5045686;28;20182;-75
2023/04/01 00:27:50;;;;;;;5.87;1.40;;;;;;;;;;5043720;28;20243;-75
2023/04/01 00:30:17;;;;;;;3.83;1.03;;;;;;;;;;5046055;28;20174;-75
2023/04/01 00:32:43;;;;;;;2.63;1.20;;;;;;;;;;5046878;28;20186;-75
2023/04/01 00:35:10;;;;;;;4.03;1.17;;;;;;;;;;5047146;28;20192;-75
2023/04/01 00:37:37;;;;;;;3.40;1.20;;;;;;;;;;5044874;28;20367;-75
2023/04/01 00:40:05;;;;;;;4.43;1.40;;;;;;;;;;5045612;28;20181;-74
2023/04/01 00:42:31;;;;;;;4.50;1.10;;;;;;;;;;5045021;28;20186;-75
2023/04/01 00:44:57;;;;;;;4.63;1.37;;;;;;;;;;5046036;28;20675;-75
2023/04/01 00:47:25;;;;;;;4.57;1.30;;;;;;;;;;5046440;28;20188;-75
2023/04/01 00:49:52;;;;;;;4.83;1.57;;;;;;;;;;5045367;28;20538;-75
2023/04/01 00:52:22;;;;;;;3.67;1.37;;;;;;;;;;5046563;28;20233;-75
2023/04/01 00:54:49;;;;;;;3.93;1.17;;;;;;;;;;5046438;28;20209;-75
2023/04/01 00:57:18;;;;;;;4.63;1.30;;;;;;;;;;5046205;28;20202;-75
2023/04/01 00:59:49;;;;;;;4.17;1.30;;;;;;;;;;5044506;28;20177;-75
2023/04/01 01:02:17;;;;;;;2.60;1.10;;;;;;;;;;5042736;28;20201;-75
2023/04/01 01:04:43;;;;;;;4.77;1.50;;;;;;;;;;5045257;28;20177;-75
2023/04/01 01:07:28;;;;;;;3.83;1.40;;;;;;;;;;5045841;28;20236;-75
2023/04/01 01:09:54;;;;;;;4.83;1.40;;;;;;;;;;5044489;28;20170;-75
2023/04/01 01:12:27;;;;;;;3.90;1.20;;;;;;;;;;5027207;28;20247;-75
2023/04/01 01:15:02;;;;;;;4.47;1.30;;;;;;;;;;5044598;28;20531;-75
2023/04/01 01:17:31;;;;;;;4.27;1.50;;;;;;;;;;5043773;28;20716;-75
2023/04/01 01:20:06;;;;;;;6.03;1.80;;;;;;;;;;5042813;28;20181;-75
2023/04/01 01:22:51;;;;;;;3.83;1.27;;;;;;;;;;5045482;28;20182;-75
2023/04/01 01:25:40;;;;;;;4.13;1.30;;;;;;;;;;5046149;28;20177;-75
2023/04/01 01:28:16;;;;;;;3.83;1.17;;;;;;;;;;5046361;28;20268;-75
2023/04/01 01:31:01;;;;;;;3.27;1.20;;;;;;;;;;5045866;28;20200;-75
2023/04/01 01:33:34;;;;;;;4.77;1.40;;;;;;;;;;5043069;28;20194;-75
2023/04/01 01:36:02;;;;;;;5.77;1.70;;;;;;;;;;5044003;28;20209;-75
2023/04/01 01:38:31;;;;;;;6.13;1.40;;;;;;;;;;5042993;28;20194;-74
2023/04/01 01:41:04;;;;;;;3.30;1.20;;;;;;;;;;5044736;28;20570;-75
2023/04/01 01:43:33;;;;;;;5.00;1.60;;;;;;;;;;5041725;28;20185;-75
2023/04/01 01:46:02;;;;;;;5.47;2.50;;;;;;;;;;5045294;28;20185;-75
2023/04/01 01:48:30;;;;;;;3.07;1.40;;;;;;;;;;5044105;28;20197;-76
2023/04/01 01:50:56;;;;;;;4.03;1.50;;;;;;;;;;5028205;28;20217;-76
2023/04/01 01:53:22;;;;;;;6.60;1.90;;;;;;;;;;5044488;28;20194;-75
2023/04/01 01:55:49;;;;;;;2.80;1.30;;;;;;;;;;5044633;28;20178;-75
2023/04/01 01:58:18;;;;;;;4.90;1.10;;;;;;;;;;5028624;28;20186;-75
2023/04/01 02:00:49;;;;;;;3.67;1.20;;;;;;;;;;5043587;28;20826;-75
2023/04/01 02:03:15;;;;;;;5.13;1.40;;;;;;;;;;5028165;28;20548;-75
2023/04/01 02:05:42;;;;;;;3.10;1.17;;;;;;;;;;5046404;28;20209;-75
2023/04/01 02:08:15;;;;;;;4.80;1.37;;;;;;;;;;5045034;28;20249;-75
2023/04/01 02:10:43;;;;;;;4.87;1.40;;;;;;;;;;5044514;28;20661;-76
2023/04/01 02:13:21;;;;;;;5.97;1.40;;;;;;;;;;5043799;28;20174;-76
2023/04/01 02:15:48;;;;;;;4.70;1.27;;;;;;;;;;5042179;28;20178;-75
2023/04/01 02:18:15;;;;;;;3.77;1.30;;;;;;;;;;5043208;28;20193;-75
2023/04/01 02:20:42;;;;;;;5.47;1.30;;;;;;;;;;5026751;28;20201;-75
2023/04/01 02:23:09;;;;;;;4.10;1.40;;;;;;;;;;5044079;28;20186;-75
2023/04/01 02:25:36;;;;;;;4.07;1.37;;;;;;;;;;5050677;28;20189;-75
2023/04/01 02:28:04;;;;;;;5.47;1.53;;;;;;;;;;5050674;28;20251;-75
2023/04/01 02:30:32;;;;;;;4.83;1.30;;;;;;;;;;5048225;28;20209;-75
2023/04/01 02:32:59;;;;;;;5.37;1.50;;;;;;;;;;5046441;28;20174;-75
2023/04/01 02:35:26;;;;;;;3.30;1.17;;;;;;;;;;5048451;28;20186;-75
2023/04/01 02:37:53;;;;;;;4.60;1.40;;;;;;;;;;5049621;28;20220;-75
2023/04/01 02:40:19;;;;;;;4.07;1.30;;;;;;;;;;5046210;28;20233;-76
2023/04/01 02:42:45;;;;;;;5.13;1.80;;;;;;;;;;5049114;28;20190;-76
2023/04/01 02:45:12;;;;;;;4.17;1.50;;;;;;;;;;5047731;28;20170;-75
2023/04/01 02:47:38;;;;;;;3.83;1.30;;;;;;;;;;5047470;28;20934;-75
2023/04/01 02:50:05;;;;;;;4.77;1.33;;;;;;;;;;5046503;28;20648;-75
2023/04/01 02:52:33;;;;;;;4.63;1.20;;;;;;;;;;5048423;28;20276;-76
2023/04/01 02:55:01;;;;;;;4.37;1.60;;;;;;;;;;5049471;28;20185;-75
2023/04/01 02:57:27;;;;;;;4.53;1.40;;;;;;;;;;5047702;28;20202;-75
2023/04/01 02:59:53;;;;;;;3.87;1.57;;;;;;;;;;5047110;28;20181;-75
2023/04/01 03:02:19;;;;;;;3.70;1.33;;;;;;;;;;5030187;28;20201;-76
2023/04/01 03:04:45;;;;;;;7.97;1.50;;;;;;;;;;5048827;28;20174;-76
2023/04/01 03:07:12;;;;;;;4.10;1.30;;;;;;;;;;5047694;28;20174;-75
2023/04/01 03:09:38;;;;;;;3.80;1.17;;;;;;;;;;5030676;28;20190;-75
2023/04/01 03:12:04;;;;;;;5.13;1.13;;;;;;;;;;5046825;28;20198;-76
2023/04/01 03:14:35;;;;;;;5.37;1.60;;;;;;;;;;5046406;28;20225;-75
2023/04/01 03:17:01;;;;;;;2.90;1.10;;;;;;;;;;5048490;28;20461;-76
2023/04/01 03:19:28;;;;;;;3.73;1.07;;;;;;;;;;5047343;28;20186;-75
2023/04/01 03:21:54;;;;;;;1.93;0.80;;;;;;;;;;5044238;28;20288;-75
2023/04/01 03:24:20;;;;;;;4.47;1.33;;;;;;;;;;5048343;28;20182;-76
2023/04/01 03:26:47;;;;;;;1.73;0.90;;;;;;;;;;5045800;28;20820;-75
2023/04/01 03:29:15;;;;;;;3.90;1.20;;;;;;;;;;5046475;28;20523;-75
2023/04/01 03:31:41;;;;;;;2.87;1.10;;;;;;;;;;5043307;28;20210;-75
2023/04/01 03:34:08;;;;;;;4.23;1.03;;;;;;;;;;5044558;28;20187;-75
2023/04/01 03:36:34;;;;;;;3.43;1.30;;;;;;;;;;5047672;28;20581;-75
2023/04/01 03:39:00;;;;;;;1.77;1.10;;;;;;;;;;5046471;28;20200;-75
2023/04/01 03:41:37;;;;;;;2.77;1.10;;;;;;;;;;5044965;28;20282;-75
2023/04/01 03:44:03;;;;;;;3.27;1.20;;;;;;;;;;5046016;28;20201;-75
2023/04/01 03:46:29;;;;;;;4.67;1.20;;;;;;;;;;5046959;28;20235;-76
2023/04/01 03:48:55;;;;;;;3.77;1.30;;;;;;;;;;5046441;28;20182;-75
2023/04/01 03:51:21;;;;;;;3.77;1.20;;;;;;;;;;5045302;28;20216;-75
2023/04/01 03:53:48;;;;;;;3.77;1.00;;;;;;;;;;5029920;28;20248;-75
2023/04/01 03:56:14;;;;;;;3.03;0.90;;;;;;;;;;5046594;28;20259;-75
2023/04/01 03:58:40;;;;;;;3.83;1.00;;;;;;;;;;5029447;28;20614;-75
2023/04/01 04:01:18;;;;;;;4.33;1.10;;;;;;;;;;5046025;28;20579;-75
2023/04/01 04:03:45;;;;;;;2.20;0.93;;;;;;;;;;5045277;28;20763;-76
2023/04/01 04:06:12;;;;;;;3.87;1.10;;;;;;;;;;5046010;28;20186;-76
2023/04/01 04:08:38;;;;;;;3.03;1.10;;;;;;;;;;5046738;28;20720;-75
2023/04/01 04:11:04;;;;;;;3.70;1.20;;;;;;;;;;5045682;28;20198;-76
2023/04/01 04:13:31;;;;;;;4.13;1.10;;;;;;;;;;5044999;28;20332;-75
2023/04/01 04:16:00;;;;;;;3.03;0.97;;;;;;;;;;5045011;28;20186;-75
2023/04/01 04:18:27;;;;;;;5.07;1.00;;;;;;;;;;5045846;28;20715;-75
2023/04/01 04:20:54;;;;;;;2.30;1.20;;;;;;;;;;5044781;28;20693;-75
2023/04/01 04:23:20;;;;;;;2.27;0.70;;;;;;;;;;5045298;28;20193;-75
2023/04/01 04:25:55;;;;;;;2.43;1.03;;;;;;;;;;5045320;28;20182;-75
2023/04/01 04:28:22;;;;;;;2.93;1.10;;;;;;;;;;5046173;28;20692;-75
2023/04/01 04:30:48;;;;;;;3.63;1.00;;;;;;;;;;5043513;28;20209;-75
2023/04/01 04:33:14;;;;;;;2.57;1.00;;;;;;;;;;5045487;28;20173;-75
2023/04/01 04:35:40;;;;;;;3.83;1.10;;;;;;;;;;5028245;28;20224;-75
2023/04/01 04:38:07;;;;;;;2.20;1.07;;;;;;;;;;5045218;28;20831;-75
2023/04/01 04:40:33;;;;;;;4.83;1.00;;;;;;;;;;5027939;28;20847;-75
2023/04/01 04:42:59;;;;;;;4.50;1.20;;;;;;;;;;5016341;28;20185;-75
2023/04/01 04:45:25;;;;;;;3.53;1.20;;;;;;;;;;5045466;28;20707;-75
2023/04/01 04:47:54;;;;;;;3.33;1.00;;;;;;;;;;5044850;28;20196;-75
2023/04/01 04:50:21;;;;;;;1.87;1.00;;;;;;;;;;5045036;28;20632;-76
2023/04/01 04:52:47;;;;;;;3.87;1.30;;;;;;;;;;5045110;28;20205;-75
2023/04/01 04:55:14;;;;;;;4.03;1.00;;;;;;;;;;5044914;28;20182;-75
2023/04/01 04:57:42;;;;;;;3.10;1.03;;;;;;;;;;5044588;28;20978;-75
2023/04/01 05:00:10;;;;;;;4.63;1.40;;;;;;;;;;5044691;28;20178;-75
2023/04/01 05:02:58;;;;;;;3.03;1.20;;;;;;;;;;5043151;28;20182;-76
2023/04/01 05:05:24;;;;;;;2.97;1.20;;;;;;;;;;5045199;28;20170;-76
2023/04/01 05:07:51;;;;;;;2.60;1.20;;;;;;;;;;5042498;28;20193;-75
2023/04/01 05:10:17;;;;;;;3.80;1.20;;;;;;;;;;5043347;28;20182;-75
2023/04/01 05:12:44;;;;;;;4.63;1.50;;;;;;;;;;5043703;28;20214;-75
2023/04/01 05:15:15;;;;;;;5.00;1.27;;;;;;;;;;5043732;28;20792;-75
2023/04/01 05:17:41;;;;;;;4.37;1.00;;;;;;;;;;5044147;28;20952;-76
2023/04/01 05:20:09;;;;;;;3.83;1.20;;;;;;;;;;5042153;28;20182;-76
2023/04/01 05:22:36;;;;;;;5.07;1.20;;;;;;;;;;5044218;28;20836;-75
2023/04/01 05:25:02;;;;;;;3.90;1.30;;;;;;;;;;5042935;28;20336;-75
2023/04/01 05:27:29;;;;;;;2.40;1.00;;;;;;;;;;5044045;28;20189;-75
2023/04/01 05:29:55;;;;;;;6.10;1.23;;;;;;;;;;5042911;28;20641;-75
2023/04/01 05:32:38;;;;;;;2.63;1.00;;;;;;;;;;5044255;28;20213;-75
2023/04/01 05:35:04;;;;;;;2.60;1.37;;;;;;;;;;5044374;28;20185;-75
2023/04/01 05:37:30;;;;;;;4.63;1.23;;;;;;;;;;5045315;28;20212;-76
2023/04/01 05:39:58;;;;;;;3.47;1.30;;;;;;;;;;5044498;28;20178;-76
2023/04/01 05:42:24;;;;;;;3.53;1.10;;;;;;;;;;5027596;28;20178;-76
2023/04/01 05:44:51;;;;;;;5.13;1.10;;;;;;;;;;5045183;28;20253;-75
2023/04/01 05:47:35;;;;;;;4.13;1.10;;;;;;;;;;5046157;28;20436;-75
2023/04/01 05:50:02;;;;;;;4.60;1.10;;;;;;;;;;5044211;28;20193;-74
2023/04/01 05:52:28;;;;;;;3.40;0.97;;;;;;;;;;5027419;28;20226;-74
2023/04/01 05:54:55;;;;;;;3.03;1.10;;;;;;;;;;5044441;28;20603;-73
2023/04/01 05:57:21;;;;;;;3.43;1.20;;;;;;;;;;5046912;28;20266;-74
2023/04/01 05:59:47;;;;;;;3.90;1.10;;;;;;;;;;5048396;28;20201;-74
2023/04/01 06:02:13;;;;;;;4.57;1.20;;;;;;;;;;5045293;28;20243;-74
2023/04/01 06:04:40;;;;;;;3.93;1.20;;;;;;;;;;5045434;28;20221;-75
2023/04/01 06:07:11;;;;;;;3.30;1.10;;;;;;;;;;5035941;28;20231;-74
2023/04/01 06:09:38;;;;;;;2.67;1.10;;;;;;;;;;5048267;28;20182;-74
2023/04/01 06:12:15;;;;;;;3.87;1.20;;;;;;;;;;5048638;28;20276;-75
2023/04/01 06:14:50;;;;;;;5.37;1.60;;;;;;;;;;5047553;28;20737;-74
2023/04/01 06:17:27;;;;;;;5.40;1.10;;;;;;;;;;5046719;28;20244;-74
2023/04/01 06:20:00;;;;;;;3.00;1.03;;;;;;;;;;5046198;28;20170;-74
2023/04/01 06:22:46;;;;;;;5.80;1.50;;;;;;;;;;5048464;28;20246;-74
2023/04/01 06:25:12;;;;;;;5.03;1.40;;;;;;;;;;5046428;28;20723;-74
2023/04/01 06:27:57;;;;;;;5.17;1.60;;;;;;;;;;5047718;28;20601;-74
2023/04/01 06:30:41;;;;;;;3.70;1.30;;;;;;;;;;5046670;28;20289;-74
2023/04/01 06:33:08;;;;;;;4.17;1.50;;;;;;;;;;5046852;28;20185;-75
2023/04/01 06:35:43;;;;;;;4.27;1.43;;;;;;;;;;5030507;28;20192;-74
2023/04/01 06:38:16;;;;;;;4.07;1.23;;;;;;;;;;5047524;28;20263;-74
2023/04/01 06:41:02;;;;;;;4.53;1.37;;;;;;;;;;5047748;28;20249;-74
2023/04/01 06:43:34;;;;;;;3.60;1.13;;;;;;;;;;5031431;28;20182;-75
2023/04/01 06:46:22;;;;;;;4.50;1.30;;;;;;;;;;5046221;28;20186;-75
2023/04/01 06:49:50;;;;;;;5.17;1.20;;;;;;;;;;5045456;28;20201;-76
2023/04/01 06:52:47;;;;;;;5.00;1.20;;;;;;;;;;5044042;28;20202;-76
2023/04/01 06:55:50;;;;;;;4.47;1.20;;;;;;;;;;5046075;28;20194;-76
2023/04/01 06:58:24;;;;;;;3.37;1.23;;;;;;;;;;5047159;28;20189;-76
2023/04/01 07:01:02;;;;;;;3.87;1.10;;;;;;;;;;5046206;28;20209;-76
2023/04/01 07:03:43;;;;;;;3.03;1.03;;;;;;;;;;5046108;28;20825;-76
2023/04/01 07:06:12;;;;;;;2.57;0.90;;;;;;;;;;5047520;28;20174;-76
2023/04/01 07:08:49;;;;;;;2.87;0.90;;;;;;;;;;5045426;28;20689;-76
2023/04/01 07:11:27;;;;;;;4.33;1.23;;;;;;;;;;5045573;28;20278;-75
2023/04/01 07:14:35;;;;;;;2.40;0.90;;;;;;;;;;5046878;28;20272;-76
2023/04/01 07:17:22;;;;;;;1.30;0.90;;;;;;;;;;5043654;28;20912;-75
2023/04/01 07:19:54;;;;;;;1.77;0.70;;;;;;;;;;5045914;28;20186;-75
2023/04/01 07:22:30;;;;;;;4.30;1.00;;;;;;;;;;5045600;28;20216;-76
2023/04/01 07:25:11;;;;;;;1.60;0.70;;;;;;;;;;5030659;28;20174;-76
2023/04/01 07:27:38;;;;;;;1.70;0.87;;;;;;;;;;5046484;28;20182;-76
2023/04/01 07:30:13;;;;;;;3.70;1.10;;;;;;;;;;5030351;28;20198;-78
2023/04/01 07:32:42;;;;;;;2.73;0.80;;;;;;;;;;5046677;28;20189;-78
2023/04/01 07:35:16;;;;;;;3.17;1.03;;;;;;;;;;5036624;28;21912;-78
2023/04/01 07:38:02;;;;;;;1.47;0.80;;;;;;;;;;5043983;28;20231;-78
2023/04/01 07:40:37;;;;;;;1.27;0.70;;;;;;;;;;5042580;28;20206;-79
2023/04/01 07:43:06;;;;;;;1.90;0.70;;;;;;;;;;5028447;28;20799;-76
2023/04/01 07:45:41;;;;;;;2.10;0.80;;;;;;;;;;5045137;28;20182;-80
2023/04/01 07:48:26;;;;;;;1.93;0.80;;;;;;;;;;5053855;28;20252;-74
2023/04/01 07:51:19;;;;;;;2.03;1.00;;;;;;;;;;5041430;28;20209;-74
2023/04/01 07:53:54;;;;;;;1.93;0.90;;;;;;;;;;5023681;28;20320;-75
2023/04/01 07:56:41;;;;;;;3.93;1.10;;;;;;;;;;5044812;28;20216;-75
2023/04/01 07:59:22;;;;;;;2.17;0.80;;;;;;;;;;5045301;28;20248;-78
2023/04/01 08:02:13;;;;;;;2.37;1.10;;;;;;;;;;5045614;28;20197;-76
2023/04/01 08:04:45;;;;;;;2.73;0.87;;;;;;;;;;5043798;28;20183;-74
2023/04/01 08:07:15;;;;;;;3.03;0.93;;;;;;;;;;5045981;28;20236;-81
2023/04/01 08:09:55;;;;;;;3.13;0.97;;;;;;;;;;5045403;28;20189;-83
2023/04/01 08:12:48;;;;;;;2.10;1.00;;;;;;;;;;5056481;28;20461;-79
2023/04/01 08:16:14;;;;;;;1.97;0.90;;;;;;;;;;5040202;28;20192;-73
2023/04/01 08:18:50;;;;;;;1.37;0.90;;;;;;;;;;5043285;28;20689;-75
2023/04/01 08:21:20;;;;;;;1.40;0.97;;;;;;;;;;5040713;28;20248;-74
2023/04/01 08:23:50;;;;;;;3.87;1.27;;;;;;;;;;5043251;28;20273;-74
2023/04/01 08:26:26;;;;;;;2.93;1.00;;;;;;;;;;5041125;28;20249;-73
2023/04/01 08:28:55;;;;;;;1.90;1.00;;;;;;;;;;5031973;28;20207;-75
2023/04/01 08:31:31;;;;;;;2.43;1.00;;;;;;;;;;5041394;28;20205;-74
2023/04/01 08:33:58;;;;;;;1.87;0.93;;;;;;;;;;5042766;28;20224;-75
2023/04/01 08:36:28;;;;;;;2.23;0.97;;;;;;;;;;5043399;28;20212;-74
2023/04/01 08:39:10;;;;;;;2.50;0.90;;;;;;;;;;5041594;28;20191;-74
2023/04/01 08:41:52;;;;;;;2.10;0.93;;;;;;;;;;5044091;28;20216;-75
2023/04/01 08:44:50;;;;;;;2.40;1.00;;;;;;;;;;5039515;28;20618;-74
2023/04/01 08:47:16;;;;;;;2.43;0.90;;;;;;;;;;5040132;28;20193;-76
2023/04/01 08:49:51;;;;;;;1.70;0.97;;;;;;;;;;5037659;28;20209;-76
2023/04/01 08:52:42;;;;;;;3.20;0.90;;;;;;;;;;5040609;28;20197;-75
2023/04/01 08:55:25;;;;;;;2.10;1.17;;;;;;;;;;5041096;28;20272;-76
2023/04/01 08:58:11;;;;;;;2.57;1.10;;;;;;;;;;5042160;28;20270;-77
2023/04/01 09:00:42;;;;;;;1.47;1.00;;;;;;;;;;5042182;28;20231;-75
2023/04/01 09:03:37;;;;;;;3.07;0.97;;;;;;;;;;5025457;28;20216;-75
2023/04/01 09:06:18;;;;;;;1.73;1.07;;;;;;;;;;5043737;28;20264;-77
2023/04/01 09:08:52;;;;;;;2.30;1.03;;;;;;;;;;5038131;28;20196;-76
2023/04/01 09:11:37;;;;;;;2.53;1.20;;;;;;;;;;5058126;28;20198;-75
2023/04/01 09:14:18;;;;;;;3.23;0.90;;;;;;;;;;5043917;28;20188;-76
2023/04/01 09:16:47;;;;;;;2.00;0.90;;;;;;;;;;5044355;28;20197;-76
2023/04/01 09:19:20;;;;;;;3.37;1.23;;;;;;;;;;5043818;28;20560;-76
2023/04/01 09:21:51;;;;;;;2.93;1.00;;;;;;;;;;5043532;28;20204;-76
2023/04/01 09:24:24;;;;;;;2.57;1.00;;;;;;;;;;5042979;28;20182;-76
2023/04/01 09:26:58;;;;;;;2.30;0.93;;;;;;;;;;5047515;28;20182;-76
2023/04/01 09:29:25;;;;;;;1.10;0.93;;;;;;;;;;5042752;28;20185;-76
2023/04/01 09:32:01;;;;;;;2.07;1.10;;;;;;;;;;5049554;28;20684;-76
2023/04/01 09:34:59;;;;;;;2.13;1.00;;;;;;;;;;5045003;28;20177;-76
2023/04/01 09:37:34;;;;;;;2.53;1.13;;;;;;;;;;5045548;28;20733;-77
2023/04/01 09:40:19;;;;;;;1.40;1.07;;;;;;;;;;5027463;28;20258;-79
2023/04/01 09:42:52;;;;;;;1.70;1.00;;;;;;;;;;5043196;28;20193;-78
2023/04/01 09:45:39;;;;;;;2.20;1.20;;;;;;;;;;5041011;28;20193;-77
2023/04/01 09:48:29;;;;;;;2.83;0.90;;;;;;;;;;5006656;28;20200;-77
2023/04/01 09:51:05;;;;;;;1.80;1.00;;;;;;;;;;5028471;28;20248;-76
2023/04/01 09:53:34;;;;;;;1.13;0.90;;;;;;;;;;5043498;28;20201;-76
2023/04/01 09:56:16;;;;;;;1.63;1.00;;;;;;;;;;5028143;28;20766;-75
2023/04/01 09:58:52;;;;;;;1.00;0.90;;;;;;;;;;5041844;28;20186;-76
2023/04/01 10:01:58;;;;;;;1.93;0.90;;;;;;;;;;5039617;28;20815;-76
2023/04/01 10:04:31;;;;;;;2.17;1.40;;;;;;;;;;5041397;28;20189;-76
2023/04/01 10:07:17;;;;;;;3.00;1.30;;;;;;;;;;5043083;28;20701;-76
2023/04/01 10:09:53;;;;;;;3.37;1.27;;;;;;;;;;5019856;28;20658;-75
2023/04/01 10:12:37;;;;;;;2.03;1.10;;;;;;;;;;5052322;28;20217;-75
2023/04/01 10:15:22;;;;;;;1.67;0.87;;;;;;;;;;5043883;28;20273;-76
2023/04/01 10:17:51;;;;;;;1.37;0.90;;;;;;;;;;5042897;28;20470;-77
2023/04/01 10:20:17;;;;;;;1.90;0.90;;;;;;;;;;5024670;28;20197;-76
2023/04/01 10:22:50;;;;;;;1.37;0.90;;;;;;;;;;5041469;28;20303;-77
2023/04/01 10:25:36;;;;;;;1.10;0.87;;;;;;;;;;5043300;28;20193;-77
2023/04/01 10:28:08;;;;;;;1.90;1.00;;;;;;;;;;5027566;28;20194;-77
2023/04/01 10:30:52;;;;;;;1.87;1.03;;;;;;;;;;5045236;28;20197;-77
2023/04/01 10:33:27;;;;;;;1.30;0.90;;;;;;;;;;5042995;28;20194;-77
2023/04/01 10:36:07;;;;;;;1.60;0.90;;;;;;;;;;5044016;28;20247;-76
2023/04/01 10:38:59;;;;;;;1.60;0.93;;;;;;;;;;5042987;28;20299;-75
2023/04/01 10:41:28;;;;;;;1.23;1.00;;;;;;;;;;5058592;28;20288;-77
2023/04/01 10:44:50;;;;;;;1.23;0.90;;;;;;;;;;5048890;28;20197;-77
2023/04/01 10:47:36;;;;;;;1.20;0.93;;;;;;;;;;5045861;28;20197;-76
2023/04/01 10:50:21;;;;;;;2.13;1.00;;;;;;;;;;5045922;28;20232;-77
2023/04/01 10:53:01;;;;;;;2.00;1.13;;;;;;;;;;5046458;28;20207;-76
2023/04/01 10:56:06;;;;;;;2.23;1.00;;;;;;;;;;5047466;28;20209;-77
2023/04/01 10:59:04;;;;;;;1.57;1.10;;;;;;;;;;5047123;28;20201;-87
2023/04/01 11:01:52;;;;;;;1.40;1.00;;;;;;;;;;5049604;28;20296;-84
2023/04/01 11:04:39;;;;;;;2.03;1.20;;;;;;;;;;5049980;28;20182;-78
2023/04/01 11:07:59;;;;;;;1.50;0.90;;;;;;;;;;5049757;28;20967;-78
2023/04/01 11:10:44;;;;;;;6.87;1.17;;;;;;;;;;5052114;28;20242;-79
2023/04/01 11:13:21;;;;;;;2.73;1.10;;;;;;;;;;5045314;28;20190;-77
2023/04/01 11:15:54;;;;;;;1.53;1.10;;;;;;;;;;5053822;28;20284;-77
2023/04/01 11:18:38;;;;;;;2.47;1.33;;;;;;;;;;5040956;28;20255;-75
2023/04/01 11:21:07;;;;;;;1.70;1.10;;;;;;;;;;5047589;28;20279;-75
2023/04/01 11:23:33;;;;;;;2.63;1.10;;;;;;;;;;5045798;28;20280;-77
2023/04/01 11:26:06;;;;;;;1.70;1.03;;;;;;;;;;5044334;28;20186;-74
2023/04/01 11:29:03;;;;;;;2.30;1.10;;;;;;;;;;5048967;28;20833;-74
2023/04/01 11:31:44;;;;;;;1.73;0.90;;;;;;;;;;5046828;28;20229;-75
2023/04/01 11:34:29;;;;;;;2.03;1.20;;;;;;;;;;5029557;28;20178;-75
2023/04/01 11:37:15;;;;;;;1.90;1.10;;;;;;;;;;5047328;28;20578;-76
2023/04/01 11:40:08;;;;;;;3.03;1.13;;;;;;;;;;5047362;28;20190;-76
2023/04/01 11:43:17;;;;;;;1.17;1.00;;;;;;;;;;5046504;28;20186;-74
2023/04/01 11:46:15;;;;;;;1.10;1.00;;;;;;;;;;5045788;28;20198;-72
2023/04/01 11:48:58;;;;;;;2.93;1.10;;;;;;;;;;5047666;28;20192;-72
2023/04/01 11:51:33;;;;;;;1.73;1.00;;;;;;;;;;5047863;28;20221;-72
2023/04/01 11:54:05;;;;;;;0.90;0.70;;;;;;;;;;5047123;28;20230;-72
2023/04/01 11:56:31;;;;;;;0.80;0.80;;;;;;;;;;5049713;28;20217;-74
2023/04/01 11:58:57;;;;;;;1.43;1.07;;;;;;;;;;5053111;28;20182;-73
2023/04/01 12:01:43;;;;;;;2.80;1.10;;;;;;;;;;5049851;28;20205;-72
2023/04/01 12:04:37;;;;;;;2.30;1.20;;;;;;;;;;5048044;28;20189;-71
2023/04/01 12:07:26;;;;;;;0.80;0.80;;;;;;;;;;5047266;28;20190;-72
2023/04/01 12:09:56;;;;;;;0.90;0.90;;;;;;;;;;5043309;28;20198;-72
2023/04/01 12:12:33;;;;;;;1.60;1.10;;;;;;;;;;5048643;28;20201;-73
2023/04/01 12:15:24;;;;;;;1.10;0.97;;;;;;;;;;5047161;28;20185;-71
2023/04/01 12:18:02;;;;;;;0.77;0.77;;;;;;;;;;5048440;28;20220;-77
2023/04/01 12:20:29;;;;;;;0.80;0.80;;;;;;;;;;5048682;28;20228;-78
2023/04/01 12:22:55;;;;;;;1.50;0.90;;;;;;;;;;5049296;28;20646;-78
2023/04/01 12:25:27;;;;;;;1.77;1.10;;;;;;;;;;5050270;28;20170;-79
2023/04/01 12:28:12;;;;;;;2.00;0.90;;;;;;;;;;5052091;28;20229;-75
2023/04/01 12:30:51;;;;;;;1.37;1.00;;;;;;;;;;5044550;28;20202;-76
2023/04/01 12:33:33;;;;;;;1.30;0.90;;;;;;;;;;5048001;28;20220;-75
2023/04/01 12:36:10;;;;;;;1.40;0.90;;;;;;;;;;5044652;28;20318;-72
2023/04/01 12:38:37;;;;;;;1.63;0.70;;;;;;;;;;5041549;28;21028;-73
2023/04/01 12:41:10;;;;;;;0.87;0.80;;;;;;;;;;5042398;28;20280;-74
2023/04/01 12:43:49;;;;;;;0.70;0.70;;;;;;;;;;5041053;28;20507;-73
2023/04/01 12:46:25;;;;;;;1.63;0.73;;;;;;;;;;5043965;28;20190;-72
2023/04/01 12:48:51;;;;;;;1.17;0.73;;;;;;;;;;5048464;28;20185;-73
2023/04/01 12:51:36;;;;;;;1.00;0.90;;;;;;;;;;5049513;28;20213;-73
2023/04/01 12:54:02;;;;;;;1.47;0.70;;;;;;;;;;5049768;28;20173;-72
2023/04/01 12:56:28;;;;;;;0.70;0.67;;;;;;;;;;5050507;28;20323;-73
2023/04/01 12:59:09;;;;;;;1.13;0.70;;;;;;;;;;5049615;28;20173;-73
2023/04/01 13:01:54;;;;;;;0.80;0.70;;;;;;;;;;5050099;28;20634;-74
2023/04/01 13:04:26;;;;;;;0.80;0.80;;;;;;;;;;5049348;28;20243;-71
2023/04/01 13:06:52;;;;;;;1.20;1.10;;;;;;;;;;5051695;28;20573;-74
2023/04/01 13:09:37;;;;;;;1.60;1.30;;;;;;;;;;5050686;28;20281;-74
2023/04/01 13:12:11;;;;;;;1.87;1.50;;;;;;;;;;5048380;28;20201;-74
2023/04/01 13:15:03;;;;;;;1.20;1.10;;;;;;;;;;5051692;28;20173;-74
2023/04/01 13:17:37;;;;;;;1.13;1.03;;;;;;;;;;5041757;28;20713;-76
2023/04/01 13:20:03;;;;;;;1.20;1.10;;;;;;;;;;5046265;28;20180;-79
2023/04/01 13:22:48;;;;;;;2.60;0.90;;;;;;;;;;5048058;28;20244;-78
2023/04/01 13:25:21;;;;;;;1.90;1.50;;;;;;;;;;5047880;28;20188;-77
2023/04/01 13:27:55;;;;;;;0.83;0.80;;;;;;;;;;5046960;28;20663;-75
2023/04/01 13:30:27;;;;;;;1.10;0.70;;;;;;;;;;5043543;28;20205;-75
2023/04/01 13:33:02;;;;;;;0.70;0.70;;;;;;;;;;5038323;28;20194;-74
2023/04/01 13:35:42;;;;;;;1.00;0.77;;;;;;;;;;5043565;28;20185;-75
2023/04/01 13:38:29;;;;;;;4.80;3.87;;;;;;;;;;5038244;28;20210;-76
2023/04/01 13:41:22;;;;;;;1.50;1.10;;;;;;;;;;5033476;28;20205;-78
2023/04/01 13:43:53;;;;;;;2.30;1.33;;;;;;;;;;5040664;28;20258;-77
2023/04/01 13:46:27;;;;;;;2.70;1.40;;;;;;;;;;5036767;28;20225;-78
2023/04/01 13:49:13;;;;;;;2.20;1.30;;;;;;;;;;5023056;28;20627;-78
2023/04/01 13:51:58;;;;;;;2.57;1.20;;;;;;;;;;5012096;28;20224;-78
2023/04/01 13:54:43;;;;;;;0.80;0.80;;;;;;;;;;5029019;28;20265;-77
2023/04/01 13:57:29;;;;;;;7.97;3.80;;;;;;;;;;5039606;28;20701;-78
2023/04/01 13:59:55;;;;;;;1.50;1.20;;;;;;;;;;5046325;28;20177;-78
2023/04/01 14:02:40;;;;;;;2.87;2.00;;;;;;;;;;5051873;28;20208;-75
2023/04/01 14:05:15;;;;;;;2.10;1.00;;;;;;;;;;5046435;28;20178;-78
2023/04/01 14:07:50;;;;;;;2.23;0.97;;;;;;;;;;5012662;28;20194;-77
2023/04/01 14:10:25;;;;;;;2.23;1.20;;;;;;;;;;5049397;28;20185;-77
2023/04/01 14:13:10;;;;;;;3.50;1.80;;;;;;;;;;5050267;28;20177;-78
2023/04/01 14:15:48;;;;;;;2.73;1.80;;;;;;;;;;5050655;28;20186;-78
2023/04/01 14:18:34;;;;;;;1.33;1.10;;;;;;;;;;5052190;28;20300;-78
2023/04/01 14:21:14;;;;;;;5.80;1.90;;;;;;;;;;5040102;28;20996;-78
2023/04/01 14:23:59;;;;;;;1.53;1.10;;;;;;;;;;5053096;28;20182;-78
2023/04/01 14:26:44;;;;;;;2.53;1.10;;;;;;;;;;5053016;28;20580;-78
2023/04/01 14:29:16;;;;;;;4.43;2.83;;;;;;;;;;5046051;28;20225;-76
2023/04/01 14:31:49;;;;;;;19.53;9.80;;;;;;;;;;5049463;28;20210;-78
2023/04/01 14:34:22;;;;;;;16.67;8.00;;;;;;;;;;5053686;28;20182;-77
2023/04/01 14:37:07;;;;;;;6.00;2.17;;;;;;;;;;5046397;28;20312;-78
2023/04/01 14:39:42;;;;;;;2.97;1.80;;;;;;;;;;5050036;28;20268;-78
2023/04/01 14:42:14;;;;;;;7.60;3.57;;;;;;;;;;5052113;28;20205;-78
2023/04/01 14:44:53;;;;;;;3.37;2.00;;;;;;;;;;5054078;28;20677;-78
2023/04/01 14:47:35;;;;;;;3.80;2.07;;;;;;;;;;5051686;28;20194;-78
2023/04/01 14:50:13;;;;;;;1.47;1.13;;;;;;;;;;5053421;28;20546;-78
2023/04/01 14:52:40;;;;;;;2.77;1.37;;;;;;;;;;5051566;28;20197;-79
2023/04/01 14:55:26;;;;;;;1.80;1.10;;;;;;;;;;5045753;28;20766;-78
2023/04/01 14:58:07;;;;;;;1.10;0.80;;;;;;;;;;5047674;28;20309;-77
2023/04/01 15:00:52;;;;;;;1.53;0.80;;;;;;;;;;5048774;28;20201;-79
2023/04/01 15:03:33;;;;;;;0.80;0.80;;;;;;;;;;5051708;28;20205;-77
2023/04/01 15:06:08;;;;;;;2.00;0.97;;;;;;;;;;5046520;28;20213;-79
2023/04/01 15:08:52;;;;;;;1.10;0.80;;;;;;;;;;5044784;28;20190;-77
2023/04/01 15:11:32;;;;;;;1.70;0.70;;;;;;;;;;5049464;28;20230;-78
2023/04/01 15:14:16;;;;;;;1.20;0.80;;;;;;;;;;5047518;28;20594;-78
2023/04/01 15:16:45;;;;;;;1.10;1.00;;;;;;;;;;5047645;28;20622;-79
2023/04/01 15:19:31;;;;;;;1.97;0.80;;;;;;;;;;5049057;28;20272;-78
2023/04/01 15:22:16;;;;;;;2.77;1.10;;;;;;;;;;5046907;28;20684;-76
2023/04/01 15:24:48;;;;;;;9.77;3.80;;;;;;;;;;5051838;28;20197;-78
2023/04/01 15:27:17;;;;;;;4.03;2.00;;;;;;;;;;5047589;28;20264;-78
2023/04/01 15:29:46;;;;;;;7.97;3.80;;;;;;;;;;5043914;28;20657;-78